sensor_id;sensor_type;location;lat;lon;timestamp;P1;durP1;ratioP1;P2;durP2;ratioP2
66856;SDS011;53766;50.280;19.160;2023-08-01T00:00:02;10.95;;;4.05;;
66856;SDS011;53766;50.280;19.160;2023-08-01T00:02:32;10.85;;;4.18;;
66856;SDS011;53766;50.280;19.160;2023-08-01T00:05:00;8.70;;;3.88;;
66856;SDS011;53766;50.280;19.160;2023-08-01T00:07:28;9.00;;;4.10;;
66856;SDS011;53766;50.280;19.160;2023-08-01T00:09:55;9.10;;;4.18;;
66856;SDS011;53766;50.280;19.160;2023-08-01T00:12:23;9.10;;;4.38;;
66856;SDS011;53766;50.280;19.160;2023-08-01T00:14:52;10.05;;;4.50;;
66856;SDS011;53766;50.280;19.160;2023-08-01T00:17:19;7.15;;;3.60;;
66856;SDS011;53766;50.280;19.160;2023-08-01T00:19:48;8.20;;;3.78;;
66856;SDS011;53766;50.280;19.160;2023-08-01T00:22:15;9.45;;;4.10;;
66856;SDS011;53766;50.280;19.160;2023-08-01T00:24:43;10.40;;;3.92;;
66856;SDS011;53766;50.280;19.160;2023-08-01T00:27:10;10.38;;;4.15;;
66856;SDS011;53766;50.280;19.160;2023-08-01T00:29:38;9.05;;;3.80;;
66856;SDS011;53766;50.280;19.160;2023-08-01T00:32:05;7.65;;;3.90;;
66856;SDS011;53766;50.280;19.160;2023-08-01T00:34:33;7.20;;;4.00;;
66856;SDS011;53766;50.280;19.160;2023-08-01T00:37:01;7.78;;;4.00;;
66856;SDS011;53766;50.280;19.160;2023-08-01T00:39:28;12.32;;;4.28;;
66856;SDS011;53766;50.280;19.160;2023-08-01T00:41:56;9.98;;;4.25;;
66856;SDS011;53766;50.280;19.160;2023-08-01T00:44:23;10.40;;;4.68;;
66856;SDS011;53766;50.280;19.160;2023-08-01T00:46:51;13.15;;;4.53;;
66856;SDS011;53766;50.280;19.160;2023-08-01T00:49:18;9.27;;;3.85;;
66856;SDS011;53766;50.280;19.160;2023-08-01T00:51:46;8.60;;;3.63;;
66856;SDS011;53766;50.280;19.160;2023-08-01T00:54:14;7.50;;;3.80;;
66856;SDS011;53766;50.280;19.160;2023-08-01T00:56:42;7.65;;;3.63;;
66856;SDS011;53766;50.280;19.160;2023-08-01T00:59:12;11.63;;;4.07;;
66856;SDS011;53766;50.280;19.160;2023-08-01T01:01:40;6.78;;;4.07;;
66856;SDS011;53766;50.280;19.160;2023-08-01T01:04:08;13.48;;;3.90;;
66856;SDS011;53766;50.280;19.160;2023-08-01T01:06:41;11.43;;;4.30;;
66856;SDS011;53766;50.280;19.160;2023-08-01T01:09:15;10.02;;;4.05;;
66856;SDS011;53766;50.280;19.160;2023-08-01T01:11:44;8.38;;;3.75;;
66856;SDS011;53766;50.280;19.160;2023-08-01T01:14:12;8.95;;;3.53;;
66856;SDS011;53766;50.280;19.160;2023-08-01T01:16:40;9.70;;;3.90;;
66856;SDS011;53766;50.280;19.160;2023-08-01T01:19:08;9.35;;;3.97;;
66856;SDS011;53766;50.280;19.160;2023-08-01T01:21:37;8.88;;;3.72;;
66856;SDS011;53766;50.280;19.160;2023-08-01T01:24:26;9.27;;;4.22;;
66856;SDS011;53766;50.280;19.160;2023-08-01T01:26:55;7.82;;;3.88;;
66856;SDS011;53766;50.280;19.160;2023-08-01T01:29:27;10.68;;;3.50;;
66856;SDS011;53766;50.280;19.160;2023-08-01T01:31:56;8.25;;;3.78;;
66856;SDS011;53766;50.280;19.160;2023-08-01T01:34:27;6.40;;;3.33;;
66856;SDS011;53766;50.280;19.160;2023-08-01T01:36:54;7.97;;;3.58;;
66856;SDS011;53766;50.280;19.160;2023-08-01T01:39:22;8.35;;;3.80;;
66856;SDS011;53766;50.280;19.160;2023-08-01T01:41:49;7.25;;;3.42;;
66856;SDS011;53766;50.280;19.160;2023-08-01T01:44:17;7.90;;;3.78;;
66856;SDS011;53766;50.280;19.160;2023-08-01T01:46:44;6.18;;;3.63;;
66856;SDS011;53766;50.280;19.160;2023-08-01T01:49:12;7.07;;;3.28;;
66856;SDS011;53766;50.280;19.160;2023-08-01T01:51:39;8.05;;;4.13;;
66856;SDS011;53766;50.280;19.160;2023-08-01T01:54:07;6.28;;;3.90;;
66856;SDS011;53766;50.280;19.160;2023-08-01T01:56:34;8.15;;;3.72;;
66856;SDS011;53766;50.280;19.160;2023-08-01T01:59:03;6.25;;;3.17;;
66856;SDS011;53766;50.280;19.160;2023-08-01T02:01:30;10.27;;;3.70;;
66856;SDS011;53766;50.280;19.160;2023-08-01T02:03:58;11.48;;;4.40;;
66856;SDS011;53766;50.280;19.160;2023-08-01T02:06:25;9.32;;;3.63;;
66856;SDS011;53766;50.280;19.160;2023-08-01T02:08:53;7.43;;;3.28;;
66856;SDS011;53766;50.280;19.160;2023-08-01T02:11:21;6.25;;;3.50;;
66856;SDS011;53766;50.280;19.160;2023-08-01T02:13:48;6.75;;;3.40;;
66856;SDS011;53766;50.280;19.160;2023-08-01T02:16:16;8.13;;;3.97;;
66856;SDS011;53766;50.280;19.160;2023-08-01T02:18:43;8.93;;;3.67;;
66856;SDS011;53766;50.280;19.160;2023-08-01T02:21:11;11.23;;;3.72;;
66856;SDS011;53766;50.280;19.160;2023-08-01T02:23:38;9.48;;;3.80;;
66856;SDS011;53766;50.280;19.160;2023-08-01T02:26:06;11.15;;;4.03;;
66856;SDS011;53766;50.280;19.160;2023-08-01T02:28:35;7.72;;;3.80;;
66856;SDS011;53766;50.280;19.160;2023-08-01T02:31:02;8.43;;;3.60;;
66856;SDS011;53766;50.280;19.160;2023-08-01T02:33:30;7.47;;;3.58;;
66856;SDS011;53766;50.280;19.160;2023-08-01T02:35:58;10.48;;;3.97;;
66856;SDS011;53766;50.280;19.160;2023-08-01T02:38:25;7.97;;;3.38;;
66856;SDS011;53766;50.280;19.160;2023-08-01T02:40:53;8.63;;;3.90;;
66856;SDS011;53766;50.280;19.160;2023-08-01T02:43:20;7.25;;;3.40;;
66856;SDS011;53766;50.280;19.160;2023-08-01T02:45:48;6.82;;;3.78;;
66856;SDS011;53766;50.280;19.160;2023-08-01T02:48:15;7.47;;;3.58;;
66856;SDS011;53766;50.280;19.160;2023-08-01T02:50:46;9.00;;;3.72;;
66856;SDS011;53766;50.280;19.160;2023-08-01T02:53:13;6.28;;;3.70;;
66856;SDS011;53766;50.280;19.160;2023-08-01T02:55:41;9.13;;;3.33;;
66856;SDS011;53766;50.280;19.160;2023-08-01T02:58:10;7.03;;;3.78;;
66856;SDS011;53766;50.280;19.160;2023-08-01T03:00:38;9.50;;;3.70;;
66856;SDS011;53766;50.280;19.160;2023-08-01T03:03:06;7.25;;;3.55;;
66856;SDS011;53766;50.280;19.160;2023-08-01T03:05:37;8.25;;;3.88;;
66856;SDS011;53766;50.280;19.160;2023-08-01T03:08:05;8.13;;;3.30;;
66856;SDS011;53766;50.280;19.160;2023-08-01T03:10:32;8.00;;;3.70;;
66856;SDS011;53766;50.280;19.160;2023-08-01T03:13:03;10.32;;;3.55;;
66856;SDS011;53766;50.280;19.160;2023-08-01T03:15:31;10.85;;;3.58;;
66856;SDS011;53766;50.280;19.160;2023-08-01T03:17:59;10.52;;;3.58;;
66856;SDS011;53766;50.280;19.160;2023-08-01T03:20:26;9.90;;;3.33;;
66856;SDS011;53766;50.280;19.160;2023-08-01T03:22:54;7.30;;;3.38;;
66856;SDS011;53766;50.280;19.160;2023-08-01T03:25:21;6.22;;;3.28;;
66856;SDS011;53766;50.280;19.160;2023-08-01T03:27:49;6.47;;;3.35;;
66856;SDS011;53766;50.280;19.160;2023-08-01T03:30:16;8.75;;;3.72;;
66856;SDS011;53766;50.280;19.160;2023-08-01T03:32:44;9.00;;;3.30;;
66856;SDS011;53766;50.280;19.160;2023-08-01T03:35:11;7.13;;;3.38;;
66856;SDS011;53766;50.280;19.160;2023-08-01T03:37:41;8.27;;;3.47;;
66856;SDS011;53766;50.280;19.160;2023-08-01T03:40:08;7.40;;;3.40;;
66856;SDS011;53766;50.280;19.160;2023-08-01T03:42:36;9.57;;;3.50;;
66856;SDS011;53766;50.280;19.160;2023-08-01T03:45:04;8.18;;;3.08;;
66856;SDS011;53766;50.280;19.160;2023-08-01T03:47:32;9.80;;;3.13;;
66856;SDS011;53766;50.280;19.160;2023-08-01T03:50:00;7.15;;;3.40;;
66856;SDS011;53766;50.280;19.160;2023-08-01T03:52:28;9.65;;;3.15;;
66856;SDS011;53766;50.280;19.160;2023-08-01T03:54:55;5.97;;;3.03;;
66856;SDS011;53766;50.280;19.160;2023-08-01T03:57:23;6.35;;;2.92;;
66856;SDS011;53766;50.280;19.160;2023-08-01T03:59:53;7.50;;;3.42;;
66856;SDS011;53766;50.280;19.160;2023-08-01T04:02:21;7.75;;;3.20;;
66856;SDS011;53766;50.280;19.160;2023-08-01T04:04:48;8.02;;;3.13;;
66856;SDS011;53766;50.280;19.160;2023-08-01T04:07:16;5.68;;;3.17;;
66856;SDS011;53766;50.280;19.160;2023-08-01T04:09:44;7.05;;;3.00;;
66856;SDS011;53766;50.280;19.160;2023-08-01T04:12:11;10.25;;;3.28;;
66856;SDS011;53766;50.280;19.160;2023-08-01T04:14:39;5.97;;;3.20;;
66856;SDS011;53766;50.280;19.160;2023-08-01T04:17:07;5.32;;;2.60;;
66856;SDS011;53766;50.280;19.160;2023-08-01T04:19:34;9.02;;;3.40;;
66856;SDS011;53766;50.280;19.160;2023-08-01T04:22:01;8.90;;;3.13;;
66856;SDS011;53766;50.280;19.160;2023-08-01T04:24:29;7.32;;;2.80;;
66856;SDS011;53766;50.280;19.160;2023-08-01T04:26:58;4.80;;;2.65;;
66856;SDS011;53766;50.280;19.160;2023-08-01T04:29:25;6.97;;;3.05;;
66856;SDS011;53766;50.280;19.160;2023-08-01T04:31:53;9.63;;;2.90;;
66856;SDS011;53766;50.280;19.160;2023-08-01T04:34:20;8.98;;;3.08;;
66856;SDS011;53766;50.280;19.160;2023-08-01T04:36:48;6.18;;;2.72;;
66856;SDS011;53766;50.280;19.160;2023-08-01T04:39:15;8.13;;;2.88;;
66856;SDS011;53766;50.280;19.160;2023-08-01T04:41:43;6.97;;;3.05;;
66856;SDS011;53766;50.280;19.160;2023-08-01T04:44:10;7.00;;;3.08;;
66856;SDS011;53766;50.280;19.160;2023-08-01T04:46:38;9.65;;;3.35;;
66856;SDS011;53766;50.280;19.160;2023-08-01T04:49:06;10.07;;;3.17;;
66856;SDS011;53766;50.280;19.160;2023-08-01T04:51:33;6.10;;;2.67;;
66856;SDS011;53766;50.280;19.160;2023-08-01T04:54:01;8.00;;;2.85;;
66856;SDS011;53766;50.280;19.160;2023-08-01T04:56:28;7.45;;;2.78;;
66856;SDS011;53766;50.280;19.160;2023-08-01T04:58:56;6.53;;;3.05;;
66856;SDS011;53766;50.280;19.160;2023-08-01T05:01:23;8.45;;;3.28;;
66856;SDS011;53766;50.280;19.160;2023-08-01T05:03:51;9.25;;;2.83;;
66856;SDS011;53766;50.280;19.160;2023-08-01T05:06:19;5.70;;;2.75;;
66856;SDS011;53766;50.280;19.160;2023-08-01T05:08:46;7.03;;;2.72;;
66856;SDS011;53766;50.280;19.160;2023-08-01T05:11:14;6.38;;;2.80;;
66856;SDS011;53766;50.280;19.160;2023-08-01T05:13:41;6.15;;;2.63;;
66856;SDS011;53766;50.280;19.160;2023-08-01T05:16:08;8.60;;;3.10;;
66856;SDS011;53766;50.280;19.160;2023-08-01T05:18:36;8.90;;;3.20;;
66856;SDS011;53766;50.280;19.160;2023-08-01T05:21:03;8.73;;;3.42;;
66856;SDS011;53766;50.280;19.160;2023-08-01T05:23:31;6.47;;;3.35;;
66856;SDS011;53766;50.280;19.160;2023-08-01T05:25:59;7.38;;;2.60;;
66856;SDS011;53766;50.280;19.160;2023-08-01T05:28:26;6.60;;;2.83;;
66856;SDS011;53766;50.280;19.160;2023-08-01T05:30:54;11.10;;;2.83;;
66856;SDS011;53766;50.280;19.160;2023-08-01T05:33:21;14.07;;;2.88;;
66856;SDS011;53766;50.280;19.160;2023-08-01T05:35:50;11.50;;;3.30;;
66856;SDS011;53766;50.280;19.160;2023-08-01T05:38:17;8.52;;;2.45;;
66856;SDS011;53766;50.280;19.160;2023-08-01T05:40:45;14.73;;;3.45;;
66856;SDS011;53766;50.280;19.160;2023-08-01T05:43:12;10.70;;;3.70;;
66856;SDS011;53766;50.280;19.160;2023-08-01T05:45:40;9.98;;;2.85;;
66856;SDS011;53766;50.280;19.160;2023-08-01T05:48:07;13.18;;;3.05;;
66856;SDS011;53766;50.280;19.160;2023-08-01T05:50:35;9.85;;;3.20;;
66856;SDS011;53766;50.280;19.160;2023-08-01T05:53:02;8.25;;;3.28;;
66856;SDS011;53766;50.280;19.160;2023-08-01T05:55:30;9.77;;;3.17;;
66856;SDS011;53766;50.280;19.160;2023-08-01T05:57:57;18.35;;;3.28;;
66856;SDS011;53766;50.280;19.160;2023-08-01T06:00:25;10.35;;;3.30;;
66856;SDS011;53766;50.280;19.160;2023-08-01T06:02:53;11.43;;;2.95;;
66856;SDS011;53766;50.280;19.160;2023-08-01T06:05:21;6.93;;;3.17;;
66856;SDS011;53766;50.280;19.160;2023-08-01T06:07:49;8.23;;;3.03;;
66856;SDS011;53766;50.280;19.160;2023-08-01T06:10:16;10.57;;;3.35;;
66856;SDS011;53766;50.280;19.160;2023-08-01T06:12:44;6.88;;;3.13;;
66856;SDS011;53766;50.280;19.160;2023-08-01T06:15:12;11.70;;;3.33;;
66856;SDS011;53766;50.280;19.160;2023-08-01T06:17:39;10.77;;;3.33;;
66856;SDS011;53766;50.280;19.160;2023-08-01T06:20:07;11.30;;;3.35;;
66856;SDS011;53766;50.280;19.160;2023-08-01T06:22:35;7.75;;;3.22;;
66856;SDS011;53766;50.280;19.160;2023-08-01T06:25:03;7.55;;;3.08;;
66856;SDS011;53766;50.280;19.160;2023-08-01T06:27:30;8.80;;;3.30;;
66856;SDS011;53766;50.280;19.160;2023-08-01T06:29:58;8.68;;;3.22;;
66856;SDS011;53766;50.280;19.160;2023-08-01T06:32:26;12.10;;;3.50;;
66856;SDS011;53766;50.280;19.160;2023-08-01T06:34:53;12.45;;;3.65;;
66856;SDS011;53766;50.280;19.160;2023-08-01T06:37:21;7.90;;;3.15;;
66856;SDS011;53766;50.280;19.160;2023-08-01T06:39:49;11.32;;;3.38;;
66856;SDS011;53766;50.280;19.160;2023-08-01T06:42:16;7.22;;;2.97;;
66856;SDS011;53766;50.280;19.160;2023-08-01T06:44:45;8.88;;;2.92;;
66856;SDS011;53766;50.280;19.160;2023-08-01T06:47:13;8.95;;;3.03;;
66856;SDS011;53766;50.280;19.160;2023-08-01T06:49:40;12.05;;;3.63;;
66856;SDS011;53766;50.280;19.160;2023-08-01T06:52:08;8.68;;;3.30;;
66856;SDS011;53766;50.280;19.160;2023-08-01T06:54:35;12.00;;;3.40;;
66856;SDS011;53766;50.280;19.160;2023-08-01T06:57:06;9.32;;;3.42;;
66856;SDS011;53766;50.280;19.160;2023-08-01T06:59:34;7.63;;;3.35;;
66856;SDS011;53766;50.280;19.160;2023-08-01T07:02:01;9.90;;;3.13;;
66856;SDS011;53766;50.280;19.160;2023-08-01T07:04:29;7.88;;;3.17;;
66856;SDS011;53766;50.280;19.160;2023-08-01T07:06:56;6.32;;;2.97;;
66856;SDS011;53766;50.280;19.160;2023-08-01T07:09:24;8.18;;;3.28;;
66856;SDS011;53766;50.280;19.160;2023-08-01T07:11:51;9.00;;;3.35;;
66856;SDS011;53766;50.280;19.160;2023-08-01T07:14:19;6.28;;;3.25;;
66856;SDS011;53766;50.280;19.160;2023-08-01T07:16:47;7.05;;;2.67;;
66856;SDS011;53766;50.280;19.160;2023-08-01T07:19:14;8.27;;;3.30;;
66856;SDS011;53766;50.280;19.160;2023-08-01T07:21:42;8.27;;;3.30;;
66856;SDS011;53766;50.280;19.160;2023-08-01T07:24:11;8.95;;;3.20;;
66856;SDS011;53766;50.280;19.160;2023-08-01T07:26:40;5.90;;;3.05;;
66856;SDS011;53766;50.280;19.160;2023-08-01T07:29:08;8.45;;;3.40;;
66856;SDS011;53766;50.280;19.160;2023-08-01T07:31:37;7.75;;;3.55;;
66856;SDS011;53766;50.280;19.160;2023-08-01T07:34:05;6.43;;;3.00;;
66856;SDS011;53766;50.280;19.160;2023-08-01T07:36:32;7.05;;;3.45;;
66856;SDS011;53766;50.280;19.160;2023-08-01T07:39:00;9.52;;;3.35;;
66856;SDS011;53766;50.280;19.160;2023-08-01T07:41:28;5.78;;;3.17;;
66856;SDS011;53766;50.280;19.160;2023-08-01T07:43:56;5.00;;;2.97;;
66856;SDS011;53766;50.280;19.160;2023-08-01T07:46:23;5.32;;;3.30;;
66856;SDS011;53766;50.280;19.160;2023-08-01T07:48:51;9.10;;;3.53;;
66856;SDS011;53766;50.280;19.160;2023-08-01T07:51:20;10.30;;;3.75;;
66856;SDS011;53766;50.280;19.160;2023-08-01T07:53:48;11.27;;;3.25;;
66856;SDS011;53766;50.280;19.160;2023-08-01T07:56:18;8.45;;;3.40;;
66856;SDS011;53766;50.280;19.160;2023-08-01T07:58:47;9.55;;;3.60;;
66856;SDS011;53766;50.280;19.160;2023-08-01T08:01:14;6.95;;;3.63;;
66856;SDS011;53766;50.280;19.160;2023-08-01T08:03:42;9.23;;;3.25;;
66856;SDS011;53766;50.280;19.160;2023-08-01T08:06:09;7.45;;;3.10;;
66856;SDS011;53766;50.280;19.160;2023-08-01T08:08:37;6.47;;;3.08;;
66856;SDS011;53766;50.280;19.160;2023-08-01T08:11:05;6.70;;;3.25;;
66856;SDS011;53766;50.280;19.160;2023-08-01T08:13:32;9.32;;;3.15;;
66856;SDS011;53766;50.280;19.160;2023-08-01T08:16:00;5.65;;;3.22;;
66856;SDS011;53766;50.280;19.160;2023-08-01T08:18:27;8.07;;;3.35;;
66856;SDS011;53766;50.280;19.160;2023-08-01T08:20:55;8.35;;;3.00;;
66856;SDS011;53766;50.280;19.160;2023-08-01T08:23:23;8.35;;;3.03;;
66856;SDS011;53766;50.280;19.160;2023-08-01T08:25:50;5.35;;;2.90;;
66856;SDS011;53766;50.280;19.160;2023-08-01T08:28:27;6.25;;;2.90;;
66856;SDS011;53766;50.280;19.160;2023-08-01T08:31:01;6.72;;;3.38;;
66856;SDS011;53766;50.280;19.160;2023-08-01T08:33:30;6.63;;;3.28;;
66856;SDS011;53766;50.280;19.160;2023-08-01T08:35:57;6.35;;;3.03;;
66856;SDS011;53766;50.280;19.160;2023-08-01T08:38:25;6.45;;;3.40;;
66856;SDS011;53766;50.280;19.160;2023-08-01T08:40:55;5.30;;;3.03;;
66856;SDS011;53766;50.280;19.160;2023-08-01T08:43:36;5.68;;;3.17;;
66856;SDS011;53766;50.280;19.160;2023-08-01T08:46:04;5.32;;;3.10;;
66856;SDS011;53766;50.280;19.160;2023-08-01T08:48:33;6.15;;;3.08;;
66856;SDS011;53766;50.280;19.160;2023-08-01T08:51:01;6.03;;;2.85;;
66856;SDS011;53766;50.280;19.160;2023-08-01T08:53:30;6.05;;;3.05;;
66856;SDS011;53766;50.280;19.160;2023-08-01T08:56:00;8.68;;;3.13;;
66856;SDS011;53766;50.280;19.160;2023-08-01T08:58:29;5.55;;;2.80;;
66856;SDS011;53766;50.280;19.160;2023-08-01T09:01:00;6.60;;;3.10;;
66856;SDS011;53766;50.280;19.160;2023-08-01T09:03:28;7.15;;;3.05;;
66856;SDS011;53766;50.280;19.160;2023-08-01T09:06:00;5.75;;;2.80;;
66856;SDS011;53766;50.280;19.160;2023-08-01T09:08:32;6.85;;;3.30;;
66856;SDS011;53766;50.280;19.160;2023-08-01T09:11:03;7.78;;;2.85;;
66856;SDS011;53766;50.280;19.160;2023-08-01T09:13:31;6.40;;;3.00;;
66856;SDS011;53766;50.280;19.160;2023-08-01T09:15:59;6.95;;;2.85;;
66856;SDS011;53766;50.280;19.160;2023-08-01T09:18:29;4.88;;;2.67;;
66856;SDS011;53766;50.280;19.160;2023-08-01T09:20:57;6.68;;;2.88;;
66856;SDS011;53766;50.280;19.160;2023-08-01T09:23:29;6.88;;;2.92;;
66856;SDS011;53766;50.280;19.160;2023-08-01T09:25:57;8.95;;;3.17;;
66856;SDS011;53766;50.280;19.160;2023-08-01T09:28:27;7.22;;;2.83;;
66856;SDS011;53766;50.280;19.160;2023-08-01T09:30:55;4.40;;;2.60;;
66856;SDS011;53766;50.280;19.160;2023-08-01T09:33:24;4.32;;;2.72;;
66856;SDS011;53766;50.280;19.160;2023-08-01T09:35:52;4.88;;;2.80;;
66856;SDS011;53766;50.280;19.160;2023-08-01T09:38:20;6.25;;;2.90;;
66856;SDS011;53766;50.280;19.160;2023-08-01T09:40:48;6.38;;;3.30;;
66856;SDS011;53766;50.280;19.160;2023-08-01T09:43:16;6.10;;;2.67;;
66856;SDS011;53766;50.280;19.160;2023-08-01T09:45:53;5.15;;;2.72;;
66856;SDS011;53766;50.280;19.160;2023-08-01T09:48:22;4.70;;;2.90;;
66856;SDS011;53766;50.280;19.160;2023-08-01T09:50:52;5.88;;;3.15;;
66856;SDS011;53766;50.280;19.160;2023-08-01T09:53:30;4.80;;;2.60;;
66856;SDS011;53766;50.280;19.160;2023-08-01T09:56:01;7.28;;;3.20;;
66856;SDS011;53766;50.280;19.160;2023-08-01T09:58:31;5.45;;;2.90;;
66856;SDS011;53766;50.280;19.160;2023-08-01T10:01:01;4.82;;;2.90;;
66856;SDS011;53766;50.280;19.160;2023-08-01T10:03:29;4.40;;;2.85;;
66856;SDS011;53766;50.280;19.160;2023-08-01T10:05:57;5.43;;;2.85;;
66856;SDS011;53766;50.280;19.160;2023-08-01T10:08:26;4.32;;;2.80;;
66856;SDS011;53766;50.280;19.160;2023-08-01T10:10:55;7.10;;;3.22;;
66856;SDS011;53766;50.280;19.160;2023-08-01T10:13:24;6.88;;;3.08;;
66856;SDS011;53766;50.280;19.160;2023-08-01T10:15:51;4.78;;;2.83;;
66856;SDS011;53766;50.280;19.160;2023-08-01T10:18:19;4.80;;;2.92;;
66856;SDS011;53766;50.280;19.160;2023-08-01T10:20:48;4.47;;;2.58;;
66856;SDS011;53766;50.280;19.160;2023-08-01T10:23:16;8.30;;;3.10;;
66856;SDS011;53766;50.280;19.160;2023-08-01T10:25:44;5.68;;;3.00;;
66856;SDS011;53766;50.280;19.160;2023-08-01T10:28:13;4.88;;;2.85;;
66856;SDS011;53766;50.280;19.160;2023-08-01T10:30:40;5.20;;;2.70;;
66856;SDS011;53766;50.280;19.160;2023-08-01T10:33:08;4.25;;;2.63;;
66856;SDS011;53766;50.280;19.160;2023-08-01T10:35:39;4.53;;;2.97;;
66856;SDS011;53766;50.280;19.160;2023-08-01T10:38:09;5.90;;;3.45;;
66856;SDS011;53766;50.280;19.160;2023-08-01T10:40:41;5.13;;;2.83;;
66856;SDS011;53766;50.280;19.160;2023-08-01T10:43:23;6.28;;;2.75;;
66856;SDS011;53766;50.280;19.160;2023-08-01T10:46:02;6.63;;;2.80;;
66856;SDS011;53766;50.280;19.160;2023-08-01T10:48:32;5.47;;;2.83;;
66856;SDS011;53766;50.280;19.160;2023-08-01T10:51:00;6.00;;;3.20;;
66856;SDS011;53766;50.280;19.160;2023-08-01T10:53:37;4.75;;;2.97;;
66856;SDS011;53766;50.280;19.160;2023-08-01T10:56:18;6.93;;;3.20;;
66856;SDS011;53766;50.280;19.160;2023-08-01T10:58:47;6.38;;;3.20;;
66856;SDS011;53766;50.280;19.160;2023-08-01T11:01:15;8.00;;;3.00;;
66856;SDS011;53766;50.280;19.160;2023-08-01T11:03:42;8.38;;;3.33;;
66856;SDS011;53766;50.280;19.160;2023-08-01T11:06:11;6.53;;;3.08;;
66856;SDS011;53766;50.280;19.160;2023-08-01T11:08:40;5.60;;;3.22;;
66856;SDS011;53766;50.280;19.160;2023-08-01T11:11:10;4.38;;;2.83;;
66856;SDS011;53766;50.280;19.160;2023-08-01T11:13:49;5.05;;;2.92;;
66856;SDS011;53766;50.280;19.160;2023-08-01T11:16:17;5.53;;;3.33;;
66856;SDS011;53766;50.280;19.160;2023-08-01T11:18:45;6.93;;;2.85;;
66856;SDS011;53766;50.280;19.160;2023-08-01T11:21:23;4.57;;;3.15;;
66856;SDS011;53766;50.280;19.160;2023-08-01T11:23:52;4.55;;;2.92;;
66856;SDS011;53766;50.280;19.160;2023-08-01T11:26:20;4.93;;;2.90;;
66856;SDS011;53766;50.280;19.160;2023-08-01T11:28:48;4.40;;;3.05;;
66856;SDS011;53766;50.280;19.160;2023-08-01T11:31:15;5.68;;;2.80;;
66856;SDS011;53766;50.280;19.160;2023-08-01T11:33:43;4.90;;;2.90;;
66856;SDS011;53766;50.280;19.160;2023-08-01T11:36:24;6.32;;;3.10;;
66856;SDS011;53766;50.280;19.160;2023-08-01T11:38:57;7.00;;;3.15;;
66856;SDS011;53766;50.280;19.160;2023-08-01T11:41:26;6.32;;;3.35;;
66856;SDS011;53766;50.280;19.160;2023-08-01T11:43:55;5.72;;;3.35;;
66856;SDS011;53766;50.280;19.160;2023-08-01T11:46:32;6.53;;;3.15;;
66856;SDS011;53766;50.280;19.160;2023-08-01T11:49:00;7.07;;;3.45;;
66856;SDS011;53766;50.280;19.160;2023-08-01T11:51:28;8.52;;;2.92;;
66856;SDS011;53766;50.280;19.160;2023-08-01T11:53:59;5.80;;;3.35;;
66856;SDS011;53766;50.280;19.160;2023-08-01T11:56:30;5.38;;;3.50;;
66856;SDS011;53766;50.280;19.160;2023-08-01T11:58:58;7.20;;;3.60;;
66856;SDS011;53766;50.280;19.160;2023-08-01T12:01:26;5.97;;;3.22;;
66856;SDS011;53766;50.280;19.160;2023-08-01T12:03:56;6.55;;;3.20;;
66856;SDS011;53766;50.280;19.160;2023-08-01T12:06:25;5.22;;;3.15;;
66856;SDS011;53766;50.280;19.160;2023-08-01T12:08:53;7.47;;;3.25;;
66856;SDS011;53766;50.280;19.160;2023-08-01T12:11:24;4.55;;;3.22;;
66856;SDS011;53766;50.280;19.160;2023-08-01T12:16:47;6.85;;;3.17;;
66856;SDS011;53766;50.280;19.160;2023-08-01T12:19:18;7.10;;;3.70;;
66856;SDS011;53766;50.280;19.160;2023-08-01T12:21:46;8.13;;;3.40;;
66856;SDS011;53766;50.280;19.160;2023-08-01T12:24:15;6.07;;;3.30;;
66856;SDS011;53766;50.280;19.160;2023-08-01T12:26:42;7.68;;;3.35;;
66856;SDS011;53766;50.280;19.160;2023-08-01T12:29:11;8.07;;;3.60;;
66856;SDS011;53766;50.280;19.160;2023-08-01T12:31:39;6.90;;;3.40;;
66856;SDS011;53766;50.280;19.160;2023-08-01T12:34:07;6.15;;;3.20;;
66856;SDS011;53766;50.280;19.160;2023-08-01T12:36:34;6.68;;;3.20;;
66856;SDS011;53766;50.280;19.160;2023-08-01T12:39:02;5.20;;;3.35;;
66856;SDS011;53766;50.280;19.160;2023-08-01T12:41:30;4.75;;;3.30;;
66856;SDS011;53766;50.280;19.160;2023-08-01T12:43:58;5.40;;;3.35;;
66856;SDS011;53766;50.280;19.160;2023-08-01T12:46:25;6.20;;;3.30;;
66856;SDS011;53766;50.280;19.160;2023-08-01T12:48:53;5.15;;;3.22;;
66856;SDS011;53766;50.280;19.160;2023-08-01T12:51:20;7.07;;;3.25;;
66856;SDS011;53766;50.280;19.160;2023-08-01T12:53:48;4.85;;;2.97;;
66856;SDS011;53766;50.280;19.160;2023-08-01T12:56:16;4.95;;;2.97;;
66856;SDS011;53766;50.280;19.160;2023-08-01T12:58:43;6.78;;;3.33;;
66856;SDS011;53766;50.280;19.160;2023-08-01T13:01:11;5.22;;;3.13;;
66856;SDS011;53766;50.280;19.160;2023-08-01T13:03:38;6.05;;;2.95;;
66856;SDS011;53766;50.280;19.160;2023-08-01T13:06:06;6.95;;;3.28;;
66856;SDS011;53766;50.280;19.160;2023-08-01T13:08:37;6.38;;;3.45;;
66856;SDS011;53766;50.280;19.160;2023-08-01T13:11:11;6.72;;;3.33;;
66856;SDS011;53766;50.280;19.160;2023-08-01T13:13:40;6.40;;;2.92;;
66856;SDS011;53766;50.280;19.160;2023-08-01T13:16:08;5.72;;;3.22;;
66856;SDS011;53766;50.280;19.160;2023-08-01T13:18:36;6.07;;;3.22;;
66856;SDS011;53766;50.280;19.160;2023-08-01T13:21:10;6.07;;;3.15;;
66856;SDS011;53766;50.280;19.160;2023-08-01T13:23:39;4.97;;;3.00;;
66856;SDS011;53766;50.280;19.160;2023-08-01T13:26:06;4.95;;;2.90;;
66856;SDS011;53766;50.280;19.160;2023-08-01T13:28:34;5.38;;;3.33;;
66856;SDS011;53766;50.280;19.160;2023-08-01T13:31:01;11.48;;;3.08;;
66856;SDS011;53766;50.280;19.160;2023-08-01T13:33:29;5.15;;;3.00;;
66856;SDS011;53766;50.280;19.160;2023-08-01T13:35:56;6.95;;;3.20;;
66856;SDS011;53766;50.280;19.160;2023-08-01T13:38:25;4.88;;;3.00;;
66856;SDS011;53766;50.280;19.160;2023-08-01T13:40:53;5.10;;;2.92;;
66856;SDS011;53766;50.280;19.160;2023-08-01T13:43:20;6.20;;;3.13;;
66856;SDS011;53766;50.280;19.160;2023-08-01T13:45:48;5.18;;;3.33;;
66856;SDS011;53766;50.280;19.160;2023-08-01T13:48:17;5.57;;;3.22;;
66856;SDS011;53766;50.280;19.160;2023-08-01T13:50:44;5.20;;;3.20;;
66856;SDS011;53766;50.280;19.160;2023-08-01T13:53:12;5.80;;;3.00;;
66856;SDS011;53766;50.280;19.160;2023-08-01T13:55:42;5.53;;;3.20;;
66856;SDS011;53766;50.280;19.160;2023-08-01T13:58:09;5.20;;;3.08;;
66856;SDS011;53766;50.280;19.160;2023-08-01T14:00:37;6.57;;;3.40;;
66856;SDS011;53766;50.280;19.160;2023-08-01T14:03:04;4.43;;;2.90;;
66856;SDS011;53766;50.280;19.160;2023-08-01T14:05:32;6.30;;;3.08;;
66856;SDS011;53766;50.280;19.160;2023-08-01T14:08:00;5.13;;;3.40;;
66856;SDS011;53766;50.280;19.160;2023-08-01T14:10:28;5.88;;;2.75;;
66856;SDS011;53766;50.280;19.160;2023-08-01T14:12:56;5.22;;;3.13;;
66856;SDS011;53766;50.280;19.160;2023-08-01T14:15:24;5.93;;;2.85;;
66856;SDS011;53766;50.280;19.160;2023-08-01T14:17:51;6.13;;;3.30;;
66856;SDS011;53766;50.280;19.160;2023-08-01T14:20:20;6.07;;;3.30;;
66856;SDS011;53766;50.280;19.160;2023-08-01T14:22:48;5.68;;;3.25;;
66856;SDS011;53766;50.280;19.160;2023-08-01T14:25:15;6.00;;;3.33;;
66856;SDS011;53766;50.280;19.160;2023-08-01T14:27:43;4.40;;;3.00;;
66856;SDS011;53766;50.280;19.160;2023-08-01T14:30:10;4.93;;;2.92;;
66856;SDS011;53766;50.280;19.160;2023-08-01T14:32:41;4.25;;;2.92;;
66856;SDS011;53766;50.280;19.160;2023-08-01T14:35:08;4.20;;;2.80;;
66856;SDS011;53766;50.280;19.160;2023-08-01T14:37:38;6.47;;;3.00;;
66856;SDS011;53766;50.280;19.160;2023-08-01T14:40:05;6.15;;;2.80;;
66856;SDS011;53766;50.280;19.160;2023-08-01T14:42:34;6.28;;;3.38;;